createdAt,value
2017-08-30T00:01:17.964Z,64.30
2017-08-30T00:03:45.904Z,64.20
2017-08-30T00:06:14.928Z,64.00
2017-08-30T00:08:42.863Z,64.20
2017-08-30T00:11:10.368Z,64.40
2017-08-30T00:13:38.663Z,64.40
2017-08-30T00:16:06.170Z,64.50
2017-08-30T00:18:33.675Z,64.40
2017-08-30T00:21:01.199Z,64.60
2017-08-30T00:23:28.699Z,64.70
2017-08-30T00:26:09.077Z,64.80
2017-08-30T00:28:36.579Z,64.80
2017-08-30T00:31:04.100Z,64.90
2017-08-30T00:33:31.998Z,65.00
2017-08-30T00:36:00.282Z,65.10
2017-08-30T00:38:28.178Z,65.00
2017-08-30T00:40:55.707Z,64.90
2017-08-30T00:43:23.210Z,65.00
2017-08-30T00:45:51.135Z,65.00
2017-08-30T00:48:18.631Z,65.00
2017-08-30T00:50:46.140Z,65.20
2017-08-30T00:53:13.667Z,65.10
2017-08-30T00:55:41.171Z,65.50
2017-08-30T00:58:08.688Z,65.60
2017-08-30T01:00:36.190Z,65.50
2017-08-30T01:03:04.495Z,65.50
2017-08-30T01:05:32.021Z,65.50
2017-08-30T01:07:59.573Z,65.40
2017-08-30T01:10:27.076Z,65.40
2017-08-30T01:12:54.627Z,65.40
2017-08-30T01:15:23.265Z,65.40
2017-08-30T01:17:50.767Z,65.30
2017-08-30T01:20:19.055Z,65.00
2017-08-30T01:22:46.946Z,64.80
2017-08-30T01:25:14.484Z,64.90
2017-08-30T01:27:41.992Z,65.10
2017-08-30T01:30:09.524Z,64.90
2017-08-30T01:32:37.027Z,65.20
2017-08-30T01:35:04.547Z,65.30
2017-08-30T01:37:32.046Z,65.40
2017-08-30T01:39:59.946Z,65.50
2017-08-30T01:42:27.467Z,65.50
2017-08-30T01:44:54.986Z,65.70
2017-08-30T01:47:22.535Z,65.60
2017-08-30T01:49:50.043Z,65.80
2017-08-30T01:52:17.568Z,65.70
2017-08-30T01:54:45.459Z,65.60
2017-08-30T01:57:13.012Z,65.50
2017-08-30T01:59:40.514Z,65.70
2017-08-30T02:02:09.172Z,65.60
2017-08-30T02:04:36.687Z,65.70
2017-08-30T02:07:04.187Z,65.80
2017-08-30T02:09:31.714Z,66.00
2017-08-30T02:11:59.211Z,66.20
2017-08-30T02:14:27.138Z,66.10
2017-08-30T02:16:55.032Z,66.40
2017-08-30T02:19:22.593Z,66.30
2017-08-30T02:21:50.096Z,66.60
2017-08-30T02:24:18.771Z,66.60
2017-08-30T02:26:47.777Z,66.60
2017-08-30T02:29:15.288Z,66.50
2017-08-30T02:31:43.951Z,66.30
2017-08-30T02:34:12.233Z,66.20
2017-08-30T02:36:40.905Z,65.80
2017-08-30T02:39:09.187Z,65.60
2017-08-30T02:41:36.719Z,65.80
2017-08-30T02:44:04.229Z,66.00
2017-08-30T02:46:31.755Z,66.00
2017-08-30T02:49:00.030Z,65.90
2017-08-30T02:51:27.533Z,66.10
2017-08-30T02:53:56.195Z,66.20
2017-08-30T02:56:23.700Z,66.30
2017-08-30T02:58:51.232Z,66.40
2017-08-30T03:01:18.731Z,66.50
2017-08-30T03:03:47.028Z,66.60
2017-08-30T03:06:15.405Z,66.80
2017-08-30T03:11:12.571Z,66.50
2017-08-30T03:13:40.079Z,66.50
2017-08-30T03:16:07.603Z,66.70
2017-08-30T03:18:35.119Z,66.70
2017-08-30T03:21:02.644Z,66.80
2017-08-30T03:23:30.151Z,66.90
2017-08-30T03:25:58.068Z,66.80
2017-08-30T03:28:25.572Z,66.80
2017-08-30T03:30:53.098Z,66.80
2017-08-30T03:33:20.623Z,66.60
2017-08-30T03:35:48.547Z,66.80
2017-08-30T03:38:16.043Z,66.80
2017-08-30T03:40:43.575Z,67.00
2017-08-30T03:43:11.090Z,67.40
2017-08-30T03:45:38.595Z,67.30
2017-08-30T03:48:06.121Z,67.60
2017-08-30T03:50:34.834Z,67.40
2017-08-30T03:53:02.759Z,67.00
2017-08-30T03:55:30.264Z,66.90
2017-08-30T03:57:58.190Z,67.00
2017-08-30T04:00:26.464Z,67.80
2017-08-30T04:02:53.991Z,67.10
2017-08-30T04:05:21.495Z,67.40
2017-08-30T04:07:49.419Z,67.30
2017-08-30T04:10:16.942Z,67.50
2017-08-30T04:12:44.439Z,67.50
2017-08-30T04:15:11.970Z,67.30
2017-08-30T04:17:39.489Z,67.30
2017-08-30T04:20:07.012Z,67.50
2017-08-30T04:22:35.368Z,67.40
2017-08-30T04:25:02.890Z,67.30
2017-08-30T04:27:30.412Z,67.10
2017-08-30T04:29:57.935Z,67.30
2017-08-30T04:32:26.208Z,67.20
2017-08-30T04:34:54.111Z,67.20
2017-08-30T04:37:22.772Z,67.10
2017-08-30T04:39:51.047Z,67.00
2017-08-30T04:42:18.987Z,67.10
2017-08-30T04:44:46.501Z,67.20
2017-08-30T04:47:14.036Z,67.20
2017-08-30T04:49:41.551Z,67.30
2017-08-30T04:52:09.080Z,67.30
2017-08-30T04:54:36.584Z,67.40
2017-08-30T04:57:04.100Z,67.40
2017-08-30T04:59:32.401Z,67.60
2017-08-30T05:01:59.909Z,67.60
2017-08-30T05:04:28.953Z,67.70
2017-08-30T05:06:56.463Z,67.50
2017-08-30T05:09:24.785Z,67.10
2017-08-30T05:11:52.296Z,67.60
2017-08-30T05:14:20.599Z,68.40
2017-08-30T05:16:48.105Z,68.80
2017-08-30T05:19:15.643Z,68.70
2017-08-30T05:21:43.147Z,68.80
2017-08-30T05:24:10.679Z,68.70
2017-08-30T05:26:38.187Z,68.50
2017-08-30T05:29:05.690Z,68.50
2017-08-30T05:31:34.352Z,68.40
2017-08-30T05:34:02.620Z,68.80
2017-08-30T05:36:30.139Z,69.20
2017-08-30T05:41:26.515Z,68.80
2017-08-30T05:43:54.031Z,68.40
2017-08-30T05:46:21.555Z,68.80
2017-08-30T05:48:49.067Z,69.60
2017-08-30T05:51:16.599Z,69.50
2017-08-30T05:53:44.870Z,69.20
2017-08-30T05:58:41.271Z,68.40
2017-08-30T06:01:08.782Z,68.40
2017-08-30T06:03:37.965Z,69.00
2017-08-30T06:06:05.470Z,68.10
2017-08-30T06:08:32.995Z,68.20
2017-08-30T06:11:00.506Z,68.30
2017-08-30T06:13:28.427Z,68.70
2017-08-30T06:15:55.940Z,69.20
2017-08-30T06:18:25.001Z,68.80
2017-08-30T06:20:53.282Z,68.70
2017-08-30T06:23:21.564Z,69.00
2017-08-30T06:25:49.058Z,69.30
2017-08-30T06:28:17.328Z,69.10
2017-08-30T06:30:45.618Z,69.30
2017-08-30T06:35:43.144Z,68.80
2017-08-30T06:40:41.155Z,68.50
2017-08-30T06:43:09.432Z,67.70
2017-08-30T06:45:36.959Z,67.70
2017-08-30T06:48:04.460Z,67.20
2017-08-30T06:50:31.979Z,67.30
2017-08-30T06:53:00.631Z,67.20
2017-08-30T06:55:28.939Z,67.20
2017-08-30T06:57:56.436Z,67.00
2017-08-30T07:00:23.943Z,66.50
2017-08-30T07:02:51.468Z,67.00
2017-08-30T07:05:18.975Z,65.80
2017-08-30T07:07:46.502Z,66.40
2017-08-30T07:10:14.770Z,66.20
2017-08-30T07:12:42.304Z,65.60
2017-08-30T07:15:09.803Z,65.10
2017-08-30T07:17:38.479Z,64.90
2017-08-30T07:20:05.999Z,65.10
2017-08-30T07:22:33.541Z,65.20
2017-08-30T07:25:01.074Z,64.60
2017-08-30T07:27:28.595Z,64.30
2017-08-30T07:29:56.859Z,64.10
2017-08-30T07:32:24.391Z,63.90
2017-08-30T07:34:51.922Z,64.10
2017-08-30T07:37:20.191Z,63.40
2017-08-30T07:39:47.741Z,62.40
2017-08-30T07:42:16.007Z,62.80
2017-08-30T07:44:43.547Z,62.40
2017-08-30T07:47:11.056Z,63.00
2017-08-30T07:49:39.347Z,63.10
2017-08-30T07:52:06.845Z,62.40
2017-08-30T07:54:34.379Z,62.40
2017-08-30T07:57:01.888Z,61.80
2017-08-30T07:59:29.429Z,61.40
2017-08-30T08:01:56.958Z,61.10
2017-08-30T08:04:25.259Z,61.10
2017-08-30T08:06:52.767Z,61.60
2017-08-30T08:09:20.271Z,60.30
2017-08-30T08:11:48.926Z,57.50
2017-08-30T08:14:16.449Z,58.40
2017-08-30T08:16:45.475Z,58.70
2017-08-30T08:19:12.975Z,57.90
2017-08-30T08:21:41.282Z,57.60
2017-08-30T08:24:08.783Z,57.60
2017-08-30T08:26:36.311Z,57.50
2017-08-30T08:29:04.582Z,55.30
2017-08-30T08:31:32.106Z,56.60
2017-08-30T08:33:59.598Z,56.40
2017-08-30T08:36:27.114Z,56.00
2017-08-30T08:38:54.614Z,56.10
2017-08-30T08:41:22.539Z,54.50
2017-08-30T08:43:50.034Z,54.20
2017-08-30T08:46:17.535Z,54.00
2017-08-30T08:48:45.058Z,53.70
2017-08-30T08:53:41.439Z,52.30
2017-08-30T08:58:37.818Z,53.20
2017-08-30T09:01:05.311Z,53.00
2017-08-30T09:03:33.223Z,51.50
2017-08-30T09:06:00.729Z,51.90
2017-08-30T09:08:28.257Z,51.70
2017-08-30T09:10:55.749Z,53.30
2017-08-30T09:13:23.646Z,52.30
2017-08-30T09:15:51.178Z,52.50
2017-08-30T09:18:18.678Z,50.80
2017-08-30T09:20:46.602Z,51.60
2017-08-30T09:25:42.987Z,51.20
2017-08-30T09:28:10.519Z,51.40
2017-08-30T09:30:38.035Z,51.60
2017-08-30T09:33:05.535Z,50.10
2017-08-30T09:35:33.050Z,50.50
2017-08-30T09:38:00.555Z,49.50
2017-08-30T09:40:28.858Z,49.70
2017-08-30T09:42:56.363Z,49.10
2017-08-30T09:45:23.879Z,49.10
2017-08-30T09:47:51.406Z,49.10
2017-08-30T09:50:18.919Z,47.90
2017-08-30T09:52:46.459Z,49.00
2017-08-30T09:55:13.959Z,46.70
2017-08-30T09:57:42.246Z,48.80
2017-08-30T10:00:09.751Z,47.00
2017-08-30T10:02:37.279Z,47.80
2017-08-30T10:05:05.177Z,47.50
2017-08-30T10:07:33.458Z,47.70
2017-08-30T10:10:01.355Z,45.90
2017-08-30T10:12:28.884Z,47.70
2017-08-30T10:14:56.397Z,46.60
2017-08-30T10:17:23.923Z,44.40
2017-08-30T10:19:51.423Z,44.50
2017-08-30T10:22:19.320Z,45.00
2017-08-30T10:24:47.620Z,44.60
2017-08-30T10:27:15.126Z,45.90
2017-08-30T10:29:42.652Z,44.80
2017-08-30T10:32:10.151Z,44.20
2017-08-30T10:34:37.679Z,44.00
2017-08-30T10:37:05.194Z,43.90
2017-08-30T10:39:33.117Z,43.60
2017-08-30T10:44:29.504Z,44.60
2017-08-30T10:46:57.026Z,43.90
2017-08-30T10:49:24.555Z,44.40
2017-08-30T10:51:52.055Z,44.00
2017-08-30T10:54:19.547Z,44.30
2017-08-30T10:56:48.603Z,45.40
2017-08-30T10:59:16.511Z,45.80
2017-08-30T11:04:12.883Z,47.10
2017-08-30T11:06:40.831Z,46.10
2017-08-30T11:09:09.100Z,48.10
2017-08-30T11:11:36.639Z,50.10
2017-08-30T11:14:04.138Z,49.10
2017-08-30T11:16:31.668Z,50.50
2017-08-30T11:18:59.163Z,49.50
2017-08-30T11:21:26.682Z,49.50
2017-08-30T11:26:23.803Z,49.80
2017-08-30T11:28:51.319Z,49.80
2017-08-30T11:31:18.871Z,50.40
2017-08-30T11:33:46.771Z,48.80
2017-08-30T11:36:14.673Z,50.00
2017-08-30T11:38:42.195Z,50.30
2017-08-30T11:41:09.702Z,49.70
2017-08-30T11:43:37.222Z,50.20
2017-08-30T11:46:04.716Z,50.00
2017-08-30T11:48:33.749Z,50.30
2017-08-30T11:51:01.262Z,50.20
2017-08-30T11:53:28.783Z,51.00
2017-08-30T11:55:57.779Z,50.40
2017-08-30T11:58:25.300Z,51.40
2017-08-30T12:00:53.567Z,49.40
2017-08-30T12:03:21.091Z,50.00
2017-08-30T12:05:48.599Z,50.50
2017-08-30T12:08:16.098Z,50.60
2017-08-30T12:10:43.619Z,50.30
2017-08-30T12:13:11.518Z,50.80
2017-08-30T12:15:39.046Z,49.10
2017-08-30T12:18:06.563Z,50.00
2017-08-30T12:20:34.091Z,50.50
2017-08-30T12:23:01.590Z,50.30
2017-08-30T12:25:29.106Z,49.50
2017-08-30T12:27:57.382Z,49.40
2017-08-30T12:30:25.307Z,49.00
2017-08-30T12:32:53.570Z,49.40
2017-08-30T12:35:21.122Z,47.70
2017-08-30T12:37:55.118Z,48.50
2017-08-30T12:40:23.042Z,48.10
2017-08-30T12:42:50.939Z,47.50
2017-08-30T12:45:18.436Z,48.00
2017-08-30T12:47:45.955Z,49.20
2017-08-30T12:50:13.456Z,47.60
2017-08-30T12:52:40.976Z,47.80
2017-08-30T12:55:08.471Z,48.10
2017-08-30T12:57:35.999Z,46.60
2017-08-30T13:00:03.506Z,47.20
2017-08-30T13:02:31.019Z,48.00
2017-08-30T13:04:58.531Z,46.90
2017-08-30T13:07:26.053Z,46.00
2017-08-30T13:09:53.551Z,46.50
2017-08-30T13:12:21.069Z,46.00
2017-08-30T13:14:48.567Z,46.70
2017-08-30T13:17:16.099Z,46.80
2017-08-30T13:19:43.615Z,46.10
2017-08-30T13:22:11.112Z,46.40
2017-08-30T13:24:38.630Z,47.20
2017-08-30T13:27:06.533Z,46.70
2017-08-30T13:29:34.059Z,47.50
2017-08-30T13:32:01.663Z,47.10
2017-08-30T13:34:29.178Z,47.50
2017-08-30T13:36:56.671Z,47.10
2017-08-30T13:39:24.198Z,46.80
2017-08-30T13:41:51.695Z,46.90
2017-08-30T13:44:19.995Z,47.10
2017-08-30T13:46:47.492Z,45.70
2017-08-30T13:49:15.022Z,45.80
2017-08-30T13:51:42.532Z,46.20
2017-08-30T13:54:11.196Z,46.60
2017-08-30T13:56:39.471Z,45.10
2017-08-30T13:59:06.972Z,46.10
2017-08-30T14:01:34.483Z,45.00
2017-08-30T14:04:02.761Z,43.90
2017-08-30T14:06:30.304Z,44.50
2017-08-30T14:08:57.809Z,44.30
2017-08-30T14:11:26.101Z,45.90
2017-08-30T14:13:53.611Z,45.20
2017-08-30T14:16:21.525Z,45.50
2017-08-30T14:18:49.049Z,45.40
2017-08-30T14:21:16.954Z,45.50
2017-08-30T14:23:45.971Z,44.80
2017-08-30T14:28:43.483Z,46.30
2017-08-30T14:31:11.035Z,47.40
2017-08-30T14:33:38.534Z,49.10
2017-08-30T14:36:06.030Z,50.20
2017-08-30T14:38:33.554Z,50.70
2017-08-30T14:41:01.046Z,50.20
2017-08-30T14:43:28.571Z,50.00
2017-08-30T14:45:56.063Z,49.50
2017-08-30T14:48:23.587Z,49.90
2017-08-30T14:50:51.108Z,50.50
2017-08-30T14:53:18.640Z,50.70
2017-08-30T14:55:46.139Z,51.40
2017-08-30T14:58:13.660Z,52.00
2017-08-30T15:00:41.172Z,50.10
2017-08-30T15:03:08.695Z,51.20
2017-08-30T15:05:37.703Z,49.10
2017-08-30T15:08:05.987Z,49.70
2017-08-30T15:10:34.254Z,49.70
2017-08-30T15:13:02.555Z,50.50
2017-08-30T15:15:30.055Z,50.10
2017-08-30T15:17:57.946Z,49.80
2017-08-30T15:20:25.863Z,49.40
2017-08-30T15:22:53.375Z,49.00
2017-08-30T15:25:20.908Z,49.90
2017-08-30T15:27:48.408Z,49.90
2017-08-30T15:30:15.934Z,49.60
2017-08-30T15:32:43.439Z,50.00
2017-08-30T15:35:11.356Z,50.40
2017-08-30T15:37:38.867Z,50.70
2017-08-30T15:40:06.395Z,50.10
2017-08-30T15:42:33.891Z,49.70
2017-08-30T15:45:01.819Z,50.60
2017-08-30T15:47:30.095Z,50.80
2017-08-30T15:49:57.626Z,51.00
2017-08-30T15:52:25.119Z,51.50
2017-08-30T15:54:52.615Z,51.50
2017-08-30T15:57:20.539Z,52.00
2017-08-30T15:59:48.043Z,51.40
2017-08-30T16:02:15.560Z,52.30
2017-08-30T16:04:43.063Z,52.20
2017-08-30T16:07:10.590Z,51.90
2017-08-30T16:09:38.111Z,51.90
2017-08-30T16:12:05.659Z,51.90
2017-08-30T16:14:33.153Z,51.20
2017-08-30T16:17:01.811Z,51.00
2017-08-30T16:19:29.310Z,50.30
2017-08-30T16:21:57.603Z,49.70
2017-08-30T16:24:25.107Z,50.00
2017-08-30T16:26:53.785Z,50.20
2017-08-30T16:29:22.057Z,51.40
2017-08-30T16:31:51.941Z,51.70
2017-08-30T16:34:19.471Z,52.30
2017-08-30T16:36:46.972Z,51.80
2017-08-30T16:39:14.487Z,52.00
2017-08-30T16:41:42.755Z,52.60
2017-08-30T16:44:11.035Z,52.90
2017-08-30T16:46:38.934Z,53.30
2017-08-30T16:49:06.467Z,53.40
2017-08-30T16:51:33.971Z,53.20
2017-08-30T16:54:01.515Z,53.30
2017-08-30T16:56:29.010Z,53.70
2017-08-30T16:58:57.292Z,53.70
2017-08-30T17:01:25.942Z,53.30
2017-08-30T17:03:53.443Z,53.60
2017-08-30T17:06:22.517Z,53.90
2017-08-30T17:08:50.015Z,53.90
2017-08-30T17:11:17.536Z,54.10
2017-08-30T17:13:45.820Z,53.90
2017-08-30T17:16:13.350Z,53.70
2017-08-30T17:18:40.868Z,54.80
2017-08-30T17:21:08.399Z,54.40
2017-08-30T17:23:36.300Z,54.50
2017-08-30T17:26:03.826Z,54.90
2017-08-30T17:28:31.350Z,54.20
2017-08-30T17:30:58.875Z,54.30
2017-08-30T17:33:26.391Z,54.60
2017-08-30T17:35:54.296Z,54.80
2017-08-30T17:38:22.207Z,54.70
2017-08-30T17:40:50.847Z,55.50
2017-08-30T17:43:19.516Z,55.60
2017-08-30T17:45:47.789Z,55.10
2017-08-30T17:48:15.316Z,54.40
2017-08-30T17:50:42.831Z,54.30
2017-08-30T17:53:11.122Z,54.30
2017-08-30T17:55:39.438Z,54.70
2017-08-30T17:58:07.731Z,54.90
2017-08-30T18:00:35.630Z,54.90
2017-08-30T18:03:03.540Z,54.90
2017-08-30T18:07:59.929Z,55.40
2017-08-30T18:10:27.437Z,55.80
2017-08-30T18:12:54.936Z,55.90
2017-08-30T18:15:22.464Z,56.20
2017-08-30T18:17:50.358Z,56.30
2017-08-30T18:20:17.875Z,56.60
2017-08-30T18:22:45.378Z,56.80
2017-08-30T18:25:13.306Z,56.90
2017-08-30T18:27:41.215Z,57.50
2017-08-30T18:30:09.495Z,57.60
2017-08-30T18:32:37.391Z,57.60
2017-08-30T18:35:04.924Z,57.50
2017-08-30T18:37:32.438Z,57.80
2017-08-30T18:40:00.387Z,57.60
2017-08-30T18:42:27.895Z,57.50
2017-08-30T18:44:56.154Z,58.30
2017-08-30T18:47:23.697Z,58.00
2017-08-30T18:49:51.607Z,58.00
2017-08-30T18:52:19.131Z,58.00
2017-08-30T18:54:47.161Z,58.10
2017-08-30T18:57:14.707Z,58.10
2017-08-30T18:59:43.352Z,58.20
2017-08-30T19:02:10.868Z,58.10
2017-08-30T19:04:38.371Z,58.30
2017-08-30T19:07:05.884Z,58.30
2017-08-30T19:09:33.388Z,58.40
2017-08-30T19:12:00.919Z,58.40
2017-08-30T19:14:28.819Z,58.50
2017-08-30T19:16:56.355Z,58.50
2017-08-30T19:19:23.863Z,58.40
2017-08-30T19:21:51.363Z,58.40
2017-08-30T19:24:18.884Z,58.50
2017-08-30T19:26:47.260Z,58.60
2017-08-30T19:29:14.783Z,58.60
2017-08-30T19:31:43.427Z,58.60
2017-08-30T19:34:11.339Z,58.40
2017-08-30T19:36:38.850Z,58.50
2017-08-30T19:39:07.131Z,59.10
2017-08-30T19:41:34.630Z,58.60
2017-08-30T19:44:02.148Z,58.60
2017-08-30T19:46:29.646Z,58.80
2017-08-30T19:48:57.168Z,58.90
2017-08-30T19:51:25.071Z,58.90
2017-08-30T19:53:52.608Z,59.10
2017-08-30T19:56:20.119Z,59.20
2017-08-30T19:58:47.649Z,59.20
2017-08-30T20:01:15.574Z,59.30
2017-08-30T20:03:43.078Z,59.50
2017-08-30T20:06:11.378Z,59.50
2017-08-30T20:08:38.897Z,59.50
2017-08-30T20:11:06.431Z,59.70
2017-08-30T20:13:34.334Z,59.70
2017-08-30T20:16:01.864Z,59.70
2017-08-30T20:18:29.379Z,59.70
2017-08-30T20:20:57.313Z,59.70
2017-08-30T20:23:24.816Z,59.90
2017-08-30T20:25:52.339Z,60.10
2017-08-30T20:28:20.979Z,60.20
2017-08-30T20:30:48.507Z,60.20
2017-08-30T20:33:16.767Z,60.30
2017-08-30T20:35:44.294Z,60.40
2017-08-30T20:38:11.811Z,60.60
2017-08-30T20:40:39.338Z,60.60
2017-08-30T20:43:06.856Z,60.60
2017-08-30T20:45:34.767Z,60.80
2017-08-30T20:48:02.666Z,60.70
2017-08-30T20:50:30.195Z,60.70
2017-08-30T20:52:57.705Z,60.90
2017-08-30T20:55:25.247Z,61.10
2017-08-30T20:57:52.747Z,61.10
2017-08-30T21:00:20.660Z,61.20
2017-08-30T21:02:48.203Z,61.40
2017-08-30T21:05:15.715Z,61.50
2017-08-30T21:07:43.247Z,61.50
2017-08-30T21:10:10.742Z,61.50
2017-08-30T21:12:38.264Z,61.40
2017-08-30T21:15:06.535Z,61.60
2017-08-30T21:17:34.063Z,61.60
2017-08-30T21:20:01.585Z,61.80
2017-08-30T21:22:29.118Z,61.80
2017-08-30T21:24:56.626Z,62.10
2017-08-30T21:27:24.132Z,62.20
2017-08-30T21:29:52.786Z,62.10
2017-08-30T21:32:20.690Z,61.90
2017-08-30T21:34:48.994Z,62.10
2017-08-30T21:37:16.566Z,62.10
2017-08-30T21:39:44.107Z,62.30
2017-08-30T21:42:11.609Z,62.30
2017-08-30T21:44:39.154Z,62.60
2017-08-30T21:47:07.430Z,62.70
2017-08-30T21:49:35.694Z,62.60
2017-08-30T21:52:04.723Z,62.80
2017-08-30T21:54:32.236Z,62.80
2017-08-30T21:56:59.763Z,63.00
2017-08-30T21:59:27.278Z,62.90
2017-08-30T22:01:55.187Z,62.80
2017-08-30T22:04:22.690Z,62.60
2017-08-30T22:06:50.977Z,62.40
2017-08-30T22:09:18.486Z,62.60
2017-08-30T22:11:46.011Z,62.90
2017-08-30T22:14:13.527Z,63.10
2017-08-30T22:16:41.026Z,63.10
2017-08-30T22:19:08.549Z,63.40
2017-08-30T22:21:36.450Z,63.40
2017-08-30T22:24:03.974Z,63.40
2017-08-30T22:26:32.254Z,63.70
2017-08-30T22:29:00.554Z,63.80
2017-08-30T22:31:28.050Z,64.00
2017-08-30T22:33:56.707Z,64.10
2017-08-30T22:36:24.976Z,64.30
2017-08-30T22:38:52.892Z,64.50
2017-08-30T22:41:20.386Z,64.60
2017-08-30T22:43:47.934Z,64.60
2017-08-30T22:46:16.207Z,64.30
2017-08-30T22:51:12.570Z,64.10
2017-08-30T22:53:40.076Z,64.40
2017-08-30T22:56:08.739Z,64.50
2017-08-30T22:58:36.235Z,64.70
2017-08-30T23:01:03.754Z,64.80
2017-08-30T23:03:31.250Z,64.70
2017-08-30T23:05:59.547Z,64.80
2017-08-30T23:08:27.051Z,64.80
2017-08-30T23:10:54.975Z,64.90
2017-08-30T23:13:23.251Z,64.90
2017-08-30T23:15:50.774Z,64.90
2017-08-30T23:18:18.271Z,64.60
2017-08-30T23:20:47.295Z,64.50
2017-08-30T23:23:14.823Z,64.70
2017-08-30T23:25:42.323Z,65.20
2017-08-30T23:28:10.656Z,65.50
2017-08-30T23:30:38.163Z,65.70
2017-08-30T23:33:05.681Z,65.90
2017-08-30T23:35:33.179Z,66.20
2017-08-30T23:38:00.699Z,66.30
2017-08-30T23:40:28.194Z,66.50
2017-08-30T23:42:56.870Z,66.50
2017-08-30T23:45:24.378Z,66.60
2017-08-30T23:47:51.884Z,66.70
2017-08-30T23:50:19.411Z,66.60
2017-08-30T23:52:47.314Z,66.60
2017-08-30T23:55:14.843Z,66.60
2017-08-30T23:57:42.347Z,66.80
